Time;durP1;ratioP1;P1;durP2;ratioP2;P2;SDS_P1;SDS_P2;PMS_P1;PMS_P2;Temp;Humidity;BMP_temperature;BMP_pressure;BME280_temperature;BME280_humidity;BME280_pressure;Samples;Min_cycle;Max_cycle;Signal;HPM_P1;HPM_P2
2021/12/23 00:00:37;;;;;;;21.30;10.20;;;;;;;;;;5093617;28;20504;-61
2021/12/23 00:03:04;;;;;;;18.25;9.35;;;;;;;;;;5093421;28;20202;-60
2021/12/23 00:05:30;;;;;;;25.58;10.73;;;;;;;;;;5093429;28;20611;-60
2021/12/23 00:07:56;;;;;;;21.02;10.43;;;;;;;;;;5093625;28;20204;-60
2021/12/23 00:10:22;;;;;;;17.98;9.18;;;;;;;;;;5093230;28;20242;-60
2021/12/23 00:12:48;;;;;;;17.38;9.05;;;;;;;;;;5093450;28;20620;-60
2021/12/23 00:15:28;;;;;;;19.35;9.48;;;;;;;;;;5093489;28;20198;-60
2021/12/23 00:17:59;;;;;;;18.40;9.23;;;;;;;;;;5093625;28;20181;-59
2021/12/23 00:25:37;;;;;;;17.23;8.98;;;;;;;;;;5093652;28;20155;-59
2021/12/23 00:28:04;;;;;;;20.27;10.25;;;;;;;;;;5093588;28;20163;-60
2021/12/23 00:30:30;;;;;;;21.15;10.05;;;;;;;;;;5093082;28;20505;-60
2021/12/23 00:32:57;;;;;;;19.13;9.70;;;;;;;;;;5093258;28;20182;-60
2021/12/23 00:35:23;;;;;;;20.90;10.00;;;;;;;;;;5093472;28;20236;-59
2021/12/23 00:37:56;;;;;;;19.90;10.15;;;;;;;;;;5093597;28;20282;-60
2021/12/23 00:40:22;;;;;;;17.45;8.77;;;;;;;;;;5093541;28;20231;-60
2021/12/23 00:42:48;;;;;;;20.45;9.52;;;;;;;;;;5092962;28;20278;-59
2021/12/23 00:45:14;;;;;;;20.48;9.82;;;;;;;;;;5093010;28;20171;-59
2021/12/23 00:47:40;;;;;;;19.38;8.82;;;;;;;;;;5093200;28;20250;-60
2021/12/23 00:50:06;;;;;;;22.55;10.48;;;;;;;;;;5093281;28;20164;-60
2021/12/23 00:52:36;;;;;;;18.63;9.13;;;;;;;;;;5092955;28;20524;-60
2021/12/23 00:55:03;;;;;;;23.75;10.50;;;;;;;;;;5093160;28;20164;-60
2021/12/23 00:57:30;;;;;;;18.65;9.23;;;;;;;;;;5093039;28;20191;-59
2021/12/23 00:59:57;;;;;;;20.27;10.10;;;;;;;;;;5093220;28;20655;-60
2021/12/23 01:02:26;;;;;;;21.63;9.45;;;;;;;;;;5092958;28;20224;-59
2021/12/23 01:04:52;;;;;;;20.67;9.77;;;;;;;;;;5092674;28;20663;-60
2021/12/23 01:07:18;;;;;;;19.60;10.15;;;;;;;;;;5092853;28;20164;-60
2021/12/23 01:09:44;;;;;;;18.60;9.63;;;;;;;;;;5092853;28;20369;-60
2021/12/23 01:12:11;;;;;;;19.00;10.38;;;;;;;;;;5096675;28;20175;-60
2021/12/23 01:19:55;;;;;;;18.70;9.55;;;;;;;;;;5096973;28;20186;-59
2021/12/23 01:22:21;;;;;;;20.17;9.98;;;;;;;;;;5096741;28;20509;-59
2021/12/23 01:24:47;;;;;;;19.27;9.68;;;;;;;;;;5096470;28;20530;-58
2021/12/23 01:27:13;;;;;;;19.48;9.30;;;;;;;;;;5096738;28;20156;-58
2021/12/23 01:29:39;;;;;;;19.65;9.43;;;;;;;;;;5096803;28;20160;-60
2021/12/23 01:32:06;;;;;;;17.85;9.15;;;;;;;;;;5096455;28;20553;-59
2021/12/23 01:34:33;;;;;;;19.45;9.43;;;;;;;;;;5096592;28;20206;-59
2021/12/23 01:37:00;;;;;;;16.63;9.18;;;;;;;;;;5096335;28;20236;-59
2021/12/23 01:39:26;;;;;;;17.20;9.15;;;;;;;;;;5095977;28;20191;-59
2021/12/23 01:41:51;;;;;;;20.40;9.88;;;;;;;;;;5096213;28;20209;-60
2021/12/23 01:44:17;;;;;;;22.80;10.88;;;;;;;;;;5095964;28;20736;-60
2021/12/23 01:46:44;;;;;;;21.17;11.13;;;;;;;;;;5095860;28;20273;-60
2021/12/23 01:49:10;;;;;;;19.58;9.95;;;;;;;;;;5095796;28;20256;-59
2021/12/23 01:51:36;;;;;;;18.13;9.65;;;;;;;;;;5095667;28;20160;-60
2021/12/23 01:54:02;;;;;;;19.90;9.10;;;;;;;;;;5095785;28;20186;-60
2021/12/23 01:56:28;;;;;;;20.17;10.27;;;;;;;;;;5095626;28;20172;-60
2021/12/23 01:58:54;;;;;;;19.60;10.30;;;;;;;;;;5095908;28;20167;-60
2021/12/23 02:01:21;;;;;;;20.38;10.05;;;;;;;;;;5095820;28;20168;-60
2021/12/23 02:03:47;;;;;;;18.02;9.18;;;;;;;;;;5095610;28;20226;-59
2021/12/23 02:06:12;;;;;;;18.20;9.70;;;;;;;;;;5095517;28;20206;-58
2021/12/23 02:08:39;;;;;;;22.98;10.82;;;;;;;;;;5095520;28;20156;-60
2021/12/23 02:11:05;;;;;;;23.25;10.75;;;;;;;;;;5095312;28;20396;-60
2021/12/23 02:13:32;;;;;;;21.17;10.10;;;;;;;;;;5095087;28;20175;-60
2021/12/23 02:15:58;;;;;;;19.00;10.07;;;;;;;;;;5095461;28;20250;-60
2021/12/23 02:18:24;;;;;;;20.25;10.43;;;;;;;;;;5095413;28;20746;-59
2021/12/23 02:20:50;;;;;;;19.15;9.68;;;;;;;;;;5095096;28;20609;-60
2021/12/23 02:23:16;;;;;;;19.00;10.05;;;;;;;;;;5094991;28;20230;-58
2021/12/23 02:25:42;;;;;;;18.83;9.25;;;;;;;;;;5094942;28;20263;-59
2021/12/23 02:28:08;;;;;;;20.83;10.75;;;;;;;;;;5095027;28;20164;-60
2021/12/23 02:30:37;;;;;;;18.95;9.90;;;;;;;;;;5095211;28;20164;-60
2021/12/23 02:33:03;;;;;;;22.27;11.00;;;;;;;;;;5095194;28;20262;-60
2021/12/23 02:35:29;;;;;;;21.05;10.27;;;;;;;;;;5094780;28;20199;-60
2021/12/23 02:37:55;;;;;;;22.58;11.02;;;;;;;;;;5094865;28;20168;-59
2021/12/23 02:40:26;;;;;;;25.00;11.35;;;;;;;;;;5094745;28;20180;-60
2021/12/23 02:42:52;;;;;;;23.85;11.02;;;;;;;;;;5094752;28;20314;-59
2021/12/23 02:45:18;;;;;;;25.50;11.85;;;;;;;;;;5094682;28;20242;-59
2021/12/23 02:47:43;;;;;;;22.40;11.90;;;;;;;;;;5094630;28;20643;-59
2021/12/23 02:50:10;;;;;;;24.90;12.13;;;;;;;;;;5094442;28;20221;-58
2021/12/23 02:52:36;;;;;;;23.95;12.18;;;;;;;;;;5094537;28;20711;-59
2021/12/23 02:55:03;;;;;;;26.25;12.82;;;;;;;;;;5094680;28;20164;-60
2021/12/23 02:57:31;;;;;;;28.27;12.48;;;;;;;;;;5094599;28;20232;-60
2021/12/23 02:59:57;;;;;;;27.98;12.35;;;;;;;;;;5094661;28;20175;-59
2021/12/23 03:02:23;;;;;;;23.95;11.63;;;;;;;;;;5094254;28;20167;-60
2021/12/23 03:04:48;;;;;;;27.15;12.32;;;;;;;;;;5094280;28;20249;-60
2021/12/23 03:07:15;;;;;;;25.92;12.48;;;;;;;;;;5094268;28;20246;-59
2021/12/23 03:09:41;;;;;;;27.10;13.25;;;;;;;;;;5094645;28;20175;-58
2021/12/23 03:12:07;;;;;;;28.77;13.60;;;;;;;;;;5094166;28;20628;-60
2021/12/23 03:14:33;;;;;;;29.88;13.50;;;;;;;;;;5092996;28;20188;-60
2021/12/23 03:16:59;;;;;;;29.65;13.43;;;;;;;;;;5093965;28;20167;-60
2021/12/23 03:19:25;;;;;;;29.92;13.40;;;;;;;;;;5093956;28;20256;-60
2021/12/23 03:21:51;;;;;;;28.90;12.68;;;;;;;;;;5093989;28;20164;-60
2021/12/23 03:24:19;;;;;;;32.30;14.82;;;;;;;;;;5094057;28;20191;-59
2021/12/23 03:26:45;;;;;;;28.80;12.75;;;;;;;;;;5094283;28;20220;-60
2021/12/23 03:29:11;;;;;;;29.23;13.98;;;;;;;;;;5093968;28;20163;-58
2021/12/23 03:31:37;;;;;;;31.20;14.68;;;;;;;;;;5094704;28;20152;-58
2021/12/23 03:34:03;;;;;;;30.67;14.80;;;;;;;;;;5093796;28;20598;-58
2021/12/23 03:36:29;;;;;;;30.35;14.18;;;;;;;;;;5094174;28;20194;-58
2021/12/23 03:38:55;;;;;;;26.80;13.18;;;;;;;;;;5093854;28;20257;-59
2021/12/23 03:41:21;;;;;;;30.70;13.43;;;;;;;;;;5094097;28;20167;-59
2021/12/23 03:43:47;;;;;;;25.38;12.68;;;;;;;;;;5094196;28;20198;-59
2021/12/23 03:46:13;;;;;;;27.90;14.13;;;;;;;;;;5093800;28;20224;-58
2021/12/23 03:48:39;;;;;;;30.67;13.82;;;;;;;;;;5093973;28;20171;-59
2021/12/23 03:51:05;;;;;;;29.02;13.95;;;;;;;;;;5093991;28;20156;-59
2021/12/23 03:53:31;;;;;;;30.73;13.15;;;;;;;;;;5093972;28;20176;-59
2021/12/23 03:55:57;;;;;;;28.52;13.93;;;;;;;;;;5093893;28;20174;-59
2021/12/23 03:58:23;;;;;;;28.75;14.15;;;;;;;;;;5093910;28;20620;-59
2021/12/23 04:00:49;;;;;;;26.65;12.85;;;;;;;;;;5093573;28;20596;-59
2021/12/23 04:03:15;;;;;;;29.42;13.15;;;;;;;;;;5092425;28;20210;-59
2021/12/23 04:05:41;;;;;;;29.05;14.27;;;;;;;;;;5093891;28;20179;-59
2021/12/23 04:08:07;;;;;;;29.05;13.15;;;;;;;;;;5093495;28;20164;-58
2021/12/23 04:10:33;;;;;;;25.55;12.65;;;;;;;;;;5093942;28;20170;-58
2021/12/23 04:12:59;;;;;;;27.75;12.88;;;;;;;;;;5093678;28;20175;-60
2021/12/23 04:15:25;;;;;;;27.17;12.88;;;;;;;;;;5093727;28;20212;-59
2021/12/23 04:17:51;;;;;;;29.40;12.70;;;;;;;;;;5093705;28;20236;-59
2021/12/23 04:20:22;;;;;;;28.45;12.45;;;;;;;;;;5093678;28;20168;-60
2021/12/23 04:22:50;;;;;;;27.83;13.25;;;;;;;;;;5093589;28;20250;-60
2021/12/23 04:25:17;;;;;;;28.25;13.07;;;;;;;;;;5093498;28;20167;-60
2021/12/23 04:27:44;;;;;;;27.90;12.90;;;;;;;;;;5093106;28;20209;-60
2021/12/23 04:30:11;;;;;;;30.98;13.15;;;;;;;;;;5093569;28;20164;-59
2021/12/23 04:32:37;;;;;;;30.90;13.45;;;;;;;;;;5093541;28;20233;-60
2021/12/23 04:35:03;;;;;;;27.77;13.40;;;;;;;;;;5093272;28;20601;-60
2021/12/23 04:37:29;;;;;;;31.65;13.38;;;;;;;;;;5093647;28;20311;-58
2021/12/23 04:39:55;;;;;;;31.35;13.70;;;;;;;;;;5093837;28;20600;-60
2021/12/23 04:42:21;;;;;;;29.25;13.70;;;;;;;;;;5093456;28;20500;-59
2021/12/23 04:44:47;;;;;;;27.52;12.45;;;;;;;;;;5093956;28;20191;-58
2021/12/23 04:47:13;;;;;;;31.25;13.98;;;;;;;;;;5101878;28;20353;-59
2021/12/23 04:49:39;;;;;;;31.50;14.10;;;;;;;;;;5107206;28;20202;-59
2021/12/23 04:52:05;;;;;;;30.80;13.57;;;;;;;;;;5097012;28;20167;-60
2021/12/23 04:54:31;;;;;;;33.47;14.63;;;;;;;;;;5096858;28;20190;-59
2021/12/23 04:56:57;;;;;;;29.25;13.95;;;;;;;;;;5096930;28;20600;-59
2021/12/23 04:59:23;;;;;;;31.92;14.13;;;;;;;;;;5096832;28;20167;-60
2021/12/23 05:01:50;;;;;;;30.50;15.00;;;;;;;;;;5096769;28;20168;-60
2021/12/23 05:04:16;;;;;;;33.40;15.27;;;;;;;;;;5096936;28;20256;-60
2021/12/23 05:06:42;;;;;;;31.40;14.77;;;;;;;;;;5096754;28;20526;-60
2021/12/23 05:09:08;;;;;;;33.90;15.07;;;;;;;;;;5097030;28;20160;-60
2021/12/23 05:11:34;;;;;;;34.05;14.85;;;;;;;;;;5096525;28;20692;-60
2021/12/23 05:14:00;;;;;;;33.53;14.88;;;;;;;;;;5096449;28;20214;-59
2021/12/23 05:16:26;;;;;;;29.98;14.05;;;;;;;;;;5096381;28;20218;-60
2021/12/23 05:18:52;;;;;;;29.73;14.63;;;;;;;;;;5096422;28;20255;-60
2021/12/23 05:21:17;;;;;;;29.80;14.20;;;;;;;;;;5096364;28;20163;-60
2021/12/23 05:23:43;;;;;;;32.88;14.40;;;;;;;;;;5096170;28;20668;-60
2021/12/23 05:26:09;;;;;;;33.22;14.70;;;;;;;;;;5096352;28;20163;-60
2021/12/23 05:28:36;;;;;;;33.58;15.52;;;;;;;;;;5096174;28;20168;-60
2021/12/23 05:31:03;;;;;;;32.80;15.48;;;;;;;;;;5096549;28;20168;-60
2021/12/23 05:33:29;;;;;;;31.25;15.75;;;;;;;;;;5096154;28;20224;-60
2021/12/23 05:35:55;;;;;;;31.98;15.50;;;;;;;;;;5096057;28;20163;-60
2021/12/23 05:38:21;;;;;;;29.33;14.63;;;;;;;;;;5096372;28;20171;-59
2021/12/23 05:40:47;;;;;;;31.20;15.18;;;;;;;;;;5096231;28;20167;-59
2021/12/23 05:43:13;;;;;;;33.95;15.43;;;;;;;;;;5096083;28;20527;-59
2021/12/23 05:45:39;;;;;;;28.33;14.48;;;;;;;;;;5096115;28;20608;-58
2021/12/23 05:48:05;;;;;;;32.65;16.30;;;;;;;;;;5096028;28;20182;-60
2021/12/23 05:50:31;;;;;;;28.60;15.07;;;;;;;;;;5096237;28;20619;-60
2021/12/23 05:52:57;;;;;;;31.92;15.25;;;;;;;;;;5096015;28;20164;-59
2021/12/23 05:55:23;;;;;;;32.08;15.55;;;;;;;;;;5095839;28;20171;-60
2021/12/23 05:57:50;;;;;;;31.17;14.68;;;;;;;;;;5095423;28;20604;-60
2021/12/23 06:00:16;;;;;;;37.42;16.00;;;;;;;;;;5094407;28;20163;-59
2021/12/23 06:02:42;;;;;;;30.95;15.98;;;;;;;;;;5095650;28;20239;-60
2021/12/23 06:05:08;;;;;;;31.10;15.55;;;;;;;;;;5095494;28;20250;-60
2021/12/23 06:07:35;;;;;;;26.02;14.13;;;;;;;;;;5095663;28;20179;-60
2021/12/23 06:10:00;;;;;;;28.30;14.50;;;;;;;;;;5095278;28;20509;-59
2021/12/23 06:12:26;;;;;;;30.10;14.93;;;;;;;;;;5095055;28;20160;-59
2021/12/23 06:14:53;;;;;;;28.52;13.75;;;;;;;;;;5095486;28;20221;-59
2021/12/23 06:17:19;;;;;;;28.67;14.98;;;;;;;;;;5095190;28;20179;-60
2021/12/23 06:19:44;;;;;;;29.13;15.10;;;;;;;;;;5095228;28;20171;-60
2021/12/23 06:22:13;;;;;;;29.00;14.48;;;;;;;;;;5095299;28;20178;-59
2021/12/23 06:24:39;;;;;;;33.30;15.50;;;;;;;;;;5095463;28;20202;-57
2021/12/23 06:27:05;;;;;;;31.50;15.93;;;;;;;;;;5095348;28;20205;-60
2021/12/23 06:29:31;;;;;;;33.78;16.02;;;;;;;;;;5094948;28;20171;-59
2021/12/23 06:31:57;;;;;;;31.27;15.18;;;;;;;;;;5094966;28;20221;-60
2021/12/23 06:34:23;;;;;;;29.52;13.90;;;;;;;;;;5095243;28;20245;-60
2021/12/23 06:36:49;;;;;;;29.80;15.27;;;;;;;;;;5094896;28;20189;-60
2021/12/23 06:39:15;;;;;;;28.73;14.75;;;;;;;;;;5094741;28;20182;-60
2021/12/23 06:41:41;;;;;;;29.33;15.38;;;;;;;;;;5094843;28;20172;-59
2021/12/23 06:44:07;;;;;;;29.65;14.93;;;;;;;;;;5094531;28;20233;-60
2021/12/23 06:46:33;;;;;;;28.50;14.07;;;;;;;;;;5094981;28;20182;-60
2021/12/23 06:48:58;;;;;;;30.17;15.05;;;;;;;;;;5094785;28;20168;-60
2021/12/23 06:51:26;;;;;;;28.63;15.05;;;;;;;;;;5095423;28;20167;-59
2021/12/23 06:53:52;;;;;;;30.52;15.45;;;;;;;;;;5095291;28;20171;-59
2021/12/23 06:56:19;;;;;;;31.73;15.57;;;;;;;;;;5095065;28;20218;-59
2021/12/23 06:58:49;;;;;;;30.38;16.02;;;;;;;;;;5094875;28;20171;-59
2021/12/23 07:01:17;;;;;;;31.90;15.90;;;;;;;;;;5095153;28;20619;-59
2021/12/23 07:04:08;;;;;;;27.02;15.00;;;;;;;;;;5095518;28;20199;-60
2021/12/23 07:06:31;;;;;;;29.65;15.05;;;;;;;;;;5095175;28;20212;-60
2021/12/23 07:08:57;;;;;;;28.55;14.57;;;;;;;;;;5094810;28;20174;-58
2021/12/23 07:11:23;;;;;;;31.33;15.52;;;;;;;;;;5095706;28;20609;-57
2021/12/23 07:13:49;;;;;;;29.95;15.55;;;;;;;;;;5094667;28;20635;-59
2021/12/23 07:16:16;;;;;;;28.13;15.55;;;;;;;;;;5094663;28;20167;-59
2021/12/23 07:18:41;;;;;;;31.73;16.48;;;;;;;;;;5094451;28;20505;-60
2021/12/23 07:21:07;;;;;;;28.55;15.15;;;;;;;;;;5094751;28;20174;-59
2021/12/23 07:42:27;;;;;;;28.92;14.27;;;;;;;;;;6154839;23;20202;31
2021/12/23 07:57:56;;;;;;;28.00;14.65;;;;;;;;;;6287952;22;20199;31
2021/12/23 08:03:02;;;;;;;27.60;15.20;;;;;;;;;;6335369;22;20555;31
2021/12/23 08:10:16;;;;;;;27.67;15.00;;;;;;;;;;6179965;22;20530;-59
2021/12/23 08:20:00;;;;;;;26.63;14.85;;;;;;;;;;5820105;22;20852;31
2021/12/23 08:24:45;;;;;;;29.15;15.25;;;;;;;;;;5902544;22;23648;31
2021/12/23 08:29:43;;;;;;;28.52;14.90;;;;;;;;;;5123778;23;20224;-59
2021/12/23 08:32:08;;;;;;;26.40;14.82;;;;;;;;;;5011374;28;20170;-59
2021/12/23 08:34:36;;;;;;;25.00;14.77;;;;;;;;;;5011119;28;20197;-60
2021/12/23 08:37:05;;;;;;;30.00;14.82;;;;;;;;;;5011258;28;20621;-59
2021/12/23 08:39:30;;;;;;;29.60;15.98;;;;;;;;;;5011311;28;20178;-59
2021/12/23 08:41:56;;;;;;;27.92;15.88;;;;;;;;;;5011385;28;20170;-59
2021/12/23 08:44:22;;;;;;;30.70;14.77;;;;;;;;;;5010940;28;20194;-60
2021/12/23 08:46:48;;;;;;;27.08;14.35;;;;;;;;;;5010888;28;20170;-59
2021/12/23 08:49:14;;;;;;;26.83;14.20;;;;;;;;;;5010902;28;20166;-60
2021/12/23 08:51:41;;;;;;;25.77;14.90;;;;;;;;;;5011144;28;20173;-59
2021/12/23 08:54:07;;;;;;;28.45;15.50;;;;;;;;;;5010964;28;20190;-59
2021/12/23 08:56:33;;;;;;;24.67;15.43;;;;;;;;;;5010828;28;20633;-60
2021/12/23 08:58:59;;;;;;;25.02;14.82;;;;;;;;;;5010994;28;20170;-59
2021/12/23 09:01:25;;;;;;;27.33;14.77;;;;;;;;;;5010641;28;20484;-59
2021/12/23 09:03:51;;;;;;;25.65;14.15;;;;;;;;;;5010477;28;20182;-60
2021/12/23 09:06:17;;;;;;;24.98;14.43;;;;;;;;;;5010455;28;20163;-59
2021/12/23 09:08:42;;;;;;;26.33;14.63;;;;;;;;;;5010717;28;20575;-59
2021/12/23 09:11:09;;;;;;;23.98;14.80;;;;;;;;;;5010566;28;20583;-59
2021/12/23 09:13:34;;;;;;;24.75;14.15;;;;;;;;;;5010488;28;20170;-58
2021/12/23 09:16:00;;;;;;;26.05;15.18;;;;;;;;;;5010711;28;20180;-59
2021/12/23 09:18:26;;;;;;;24.42;14.65;;;;;;;;;;5010595;28;20170;-58
2021/12/23 09:20:53;;;;;;;27.55;15.63;;;;;;;;;;5010772;28;20478;-58
2021/12/23 09:23:19;;;;;;;25.33;15.10;;;;;;;;;;5010360;28;20542;-59
2021/12/23 09:25:47;;;;;;;25.17;15.27;;;;;;;;;;5010417;28;20198;-60
2021/12/23 09:28:25;;;;;;;26.77;16.00;;;;;;;;;;5010640;28;20182;-59
2021/12/23 09:33:38;;;;;;;25.65;14.45;;;;;;;;;;5010496;28;20487;-59
2021/12/23 09:36:04;;;;;;;22.60;13.85;;;;;;;;;;4996818;28;20591;-58
2021/12/23 09:38:30;;;;;;;24.10;14.38;;;;;;;;;;4997523;28;20478;-59
2021/12/23 09:41:05;;;;;;;23.63;14.27;;;;;;;;;;4998760;28;20169;-59
2021/12/23 09:43:32;;;;;;;26.23;15.05;;;;;;;;;;4998950;28;20182;-58
2021/12/23 09:45:58;;;;;;;25.80;15.02;;;;;;;;;;4999222;28;20174;-59
2021/12/23 09:48:26;;;;;;;23.45;14.05;;;;;;;;;;4997355;28;20171;-59
2021/12/23 09:50:52;;;;;;;23.42;13.38;;;;;;;;;;4997079;28;20163;-60
2021/12/23 09:53:19;;;;;;;21.85;13.23;;;;;;;;;;4997514;28;20186;-60
2021/12/23 09:55:46;;;;;;;22.38;13.80;;;;;;;;;;4997055;28;20257;-59
2021/12/23 09:58:12;;;;;;;23.42;14.30;;;;;;;;;;4998028;28;20177;-59
2021/12/23 10:00:45;;;;;;;24.80;14.30;;;;;;;;;;4998558;28;20206;-60
2021/12/23 10:03:11;;;;;;;25.10;14.80;;;;;;;;;;4997193;28;20183;-57
2021/12/23 10:05:38;;;;;;;22.77;14.20;;;;;;;;;;4999788;28;20225;-57
2021/12/23 10:08:05;;;;;;;22.10;14.13;;;;;;;;;;5001481;28;20685;-57
2021/12/23 10:10:40;;;;;;;23.08;13.88;;;;;;;;;;5001944;28;20209;-60
2021/12/23 10:27:14;;;;;;;22.00;13.88;;;;;;;;;;5006708;28;20171;-60
2021/12/23 10:32:49;;;;;;;21.63;12.77;;;;;;;;;;5009393;28;20166;-60
2021/12/23 10:38:05;;;;;;;22.52;13.32;;;;;;;;;;5008077;28;20225;-60
2021/12/23 10:40:32;;;;;;;24.33;14.27;;;;;;;;;;5009094;28;20167;-59
2021/12/23 10:42:58;;;;;;;21.95;12.88;;;;;;;;;;5012269;28;20257;-59
2021/12/23 10:45:24;;;;;;;22.77;13.50;;;;;;;;;;5010146;28;20171;-60
2021/12/23 10:48:06;;;;;;;23.48;13.23;;;;;;;;;;5006880;28;20182;-60
2021/12/23 10:50:41;;;;;;;23.52;13.70;;;;;;;;;;5006097;28;20171;-60
2021/12/23 10:53:11;;;;;;;22.00;13.75;;;;;;;;;;5002180;28;20178;-59
2021/12/23 10:58:23;;;;;;;23.65;13.38;;;;;;;;;;4997702;28;20170;-59
2021/12/23 11:00:52;;;;;;;22.40;13.02;;;;;;;;;;4995564;28;20214;-60
2021/12/23 11:03:39;;;;;;;23.85;14.05;;;;;;;;;;4995659;28;20191;-59
2021/12/23 11:06:12;;;;;;;25.98;13.75;;;;;;;;;;4995809;28;20591;-60
2021/12/23 11:08:50;;;;;;;20.38;12.35;;;;;;;;;;4995683;28;20250;-60
2021/12/23 11:43:51;;;;;;;19.50;12.48;;;;;;;;;;4995176;28;20210;-60
2021/12/23 11:46:23;;;;;;;21.42;12.73;;;;;;;;;;4995155;28;20225;-60
2021/12/23 11:48:53;;;;;;;18.67;12.43;;;;;;;;;;4995152;28;20258;-59
2021/12/23 11:51:22;;;;;;;20.50;12.70;;;;;;;;;;4994520;28;20187;-59
2021/12/23 11:53:49;;;;;;;23.15;13.27;;;;;;;;;;4994843;28;20607;-57
2021/12/23 11:56:16;;;;;;;20.60;12.35;;;;;;;;;;4994531;28;20202;-61
2021/12/23 11:58:45;;;;;;;23.02;13.38;;;;;;;;;;4994626;28;20236;-59
2021/12/23 12:01:15;;;;;;;24.33;13.05;;;;;;;;;;4994590;28;20186;-59
2021/12/23 12:03:57;;;;;;;21.80;13.32;;;;;;;;;;4994467;28;20573;-59
2021/12/23 12:06:24;;;;;;;21.52;12.65;;;;;;;;;;4994567;28;20587;-59
2021/12/23 12:09:09;;;;;;;21.38;12.57;;;;;;;;;;4994425;28;20595;-59
2021/12/23 12:11:35;;;;;;;22.08;12.20;;;;;;;;;;4994230;28;20655;-60
2021/12/23 12:14:01;;;;;;;20.30;11.95;;;;;;;;;;4994355;28;20309;-60
2021/12/23 12:16:37;;;;;;;22.33;13.35;;;;;;;;;;4994206;28;20265;-60
2021/12/23 12:19:04;;;;;;;22.08;12.93;;;;;;;;;;4994942;28;20171;-60
2021/12/23 12:21:34;;;;;;;22.67;13.73;;;;;;;;;;4994489;28;20166;-60
2021/12/23 12:24:14;;;;;;;18.95;12.85;;;;;;;;;;4994441;28;20637;-60
2021/12/23 12:26:53;;;;;;;22.33;14.25;;;;;;;;;;4994009;28;20171;-60
2021/12/23 12:29:20;;;;;;;18.92;11.95;;;;;;;;;;4994239;28;20269;-59
2021/12/23 12:31:47;;;;;;;22.55;11.98;;;;;;;;;;4993873;28;20254;-60
2021/12/23 12:34:13;;;;;;;20.67;13.25;;;;;;;;;;4994175;28;20174;-59
2021/12/23 12:36:49;;;;;;;21.33;12.57;;;;;;;;;;4993799;28;20171;-59
2021/12/23 12:39:18;;;;;;;22.25;12.68;;;;;;;;;;4994029;28;20185;-58
2021/12/23 12:41:45;;;;;;;20.85;12.40;;;;;;;;;;4994095;28;20194;-60
2021/12/23 12:44:24;;;;;;;23.27;12.43;;;;;;;;;;4994129;28;20205;-60
2021/12/23 12:47:00;;;;;;;21.58;12.93;;;;;;;;;;4994384;28;20151;-58
2021/12/23 12:49:29;;;;;;;22.60;13.27;;;;;;;;;;5005757;28;20186;-59
2021/12/23 12:51:56;;;;;;;20.58;12.20;;;;;;;;;;4996043;28;20167;-59
2021/12/23 12:54:30;;;;;;;19.80;12.43;;;;;;;;;;4993959;28;20168;-59
2021/12/23 12:57:01;;;;;;;18.05;11.40;;;;;;;;;;4994039;28;20224;-59
2021/12/23 12:59:29;;;;;;;19.70;12.65;;;;;;;;;;4993965;28;20170;-59
2021/12/23 13:01:55;;;;;;;19.08;12.55;;;;;;;;;;4994125;28;20554;-59
2021/12/23 13:04:26;;;;;;;20.15;12.95;;;;;;;;;;4993971;28;20191;-61
2021/12/23 13:06:53;;;;;;;17.40;11.85;;;;;;;;;;4994641;28;20206;-60
2021/12/23 13:09:24;;;;;;;17.58;11.57;;;;;;;;;;4994088;28;20181;-59
2021/12/23 13:11:50;;;;;;;20.35;12.10;;;;;;;;;;4997763;28;20171;-58
2021/12/23 13:14:23;;;;;;;19.63;12.80;;;;;;;;;;4997791;28;20174;-60
2021/12/23 13:16:57;;;;;;;18.63;12.10;;;;;;;;;;4997561;28;20174;-60
2021/12/23 13:19:28;;;;;;;20.52;11.95;;;;;;;;;;4997152;28;20478;-60
2021/12/23 13:21:56;;;;;;;23.20;12.38;;;;;;;;;;4997463;28;20250;-60
2021/12/23 13:24:23;;;;;;;22.63;12.45;;;;;;;;;;4997255;28;20206;-60
2021/12/23 13:26:53;;;;;;;23.05;13.43;;;;;;;;;;4997341;28;20170;-59
2021/12/23 13:29:21;;;;;;;21.70;12.60;;;;;;;;;;4997059;28;20183;-60
2021/12/23 13:31:47;;;;;;;19.17;11.98;;;;;;;;;;4997082;28;20237;-59
2021/12/23 13:34:21;;;;;;;19.48;12.18;;;;;;;;;;4996891;28;20171;-60
2021/12/23 13:36:49;;;;;;;18.40;11.88;;;;;;;;;;4997007;28;20186;-60
2021/12/23 13:39:26;;;;;;;21.33;12.63;;;;;;;;;;4996717;28;20181;-60
2021/12/23 13:41:53;;;;;;;19.20;12.40;;;;;;;;;;4996997;28;20202;-61
2021/12/23 13:44:27;;;;;;;22.77;13.63;;;;;;;;;;4996698;28;20187;-60
2021/12/23 13:47:19;;;;;;;21.42;13.27;;;;;;;;;;4996738;28;20582;-60
2021/12/23 13:49:47;;;;;;;22.13;12.70;;;;;;;;;;4994541;28;20191;-60
2021/12/23 13:52:30;;;;;;;20.88;12.40;;;;;;;;;;4996571;28;20167;-61
2021/12/23 13:54:57;;;;;;;20.90;12.43;;;;;;;;;;4996827;28;20162;-61
2021/12/23 13:57:24;;;;;;;21.02;12.30;;;;;;;;;;4996924;28;20194;-60
2021/12/23 13:59:52;;;;;;;24.13;13.02;;;;;;;;;;4996457;28;20186;-60
2021/12/23 14:02:18;;;;;;;21.33;12.00;;;;;;;;;;4996517;28;20627;-60
2021/12/23 14:04:57;;;;;;;21.45;12.27;;;;;;;;;;4996310;28;20630;-61
2021/12/23 14:07:25;;;;;;;20.45;11.90;;;;;;;;;;4996429;28;20173;-60
2021/12/23 14:09:51;;;;;;;22.67;13.05;;;;;;;;;;4996194;28;20167;-60
2021/12/23 14:12:21;;;;;;;21.48;12.38;;;;;;;;;;4996306;28;20171;-61
2021/12/23 14:15:01;;;;;;;21.45;12.65;;;;;;;;;;4996728;28;20498;-60
2021/12/23 14:17:32;;;;;;;22.95;12.45;;;;;;;;;;4996246;28;20201;-60
2021/12/23 14:23:12;;;;;;;22.92;13.02;;;;;;;;;;4996214;28;20175;-61
2021/12/23 14:25:32;;;;;;;21.02;12.38;;;;;;;;;;4996297;28;20171;-60
2021/12/23 14:27:57;;;;;;;22.73;13.18;;;;;;;;;;4995880;28;20171;-58
2021/12/23 14:30:36;;;;;;;23.10;13.15;;;;;;;;;;4996061;28;20152;-60
2021/12/23 14:33:07;;;;;;;21.20;13.07;;;;;;;;;;4996063;28;20170;-60
2021/12/23 14:35:32;;;;;;;23.63;13.35;;;;;;;;;;4996276;28;20166;-60
2021/12/23 14:37:59;;;;;;;21.52;12.90;;;;;;;;;;4996050;28;20614;-60
2021/12/23 14:40:25;;;;;;;24.70;14.15;;;;;;;;;;4995954;28;20174;-60
2021/12/23 14:42:58;;;;;;;23.55;14.07;;;;;;;;;;4995554;28;20201;-59
2021/12/23 14:45:24;;;;;;;24.42;13.20;;;;;;;;;;4995735;28;20174;-59
2021/12/23 14:48:07;;;;;;;25.35;14.38;;;;;;;;;;4995794;28;20167;-60
2021/12/23 14:50:38;;;;;;;21.02;13.18;;;;;;;;;;4995846;28;20242;-59
2021/12/23 14:53:16;;;;;;;23.85;13.48;;;;;;;;;;4995835;28;20238;-60
2021/12/23 14:55:42;;;;;;;25.95;15.15;;;;;;;;;;4995548;28;20193;-60
2021/12/23 14:58:13;;;;;;;25.92;14.45;;;;;;;;;;4995351;28;20522;-60
2021/12/23 15:00:40;;;;;;;22.35;13.60;;;;;;;;;;4995634;28;20190;-59
2021/12/23 15:03:07;;;;;;;21.95;13.32;;;;;;;;;;4995548;28;20186;-60
2021/12/23 15:05:35;;;;;;;23.50;14.52;;;;;;;;;;4995678;28;20250;-60
2021/12/23 15:08:02;;;;;;;26.23;14.48;;;;;;;;;;4995497;28;20174;-59
2021/12/23 15:10:48;;;;;;;25.55;14.95;;;;;;;;;;4995137;28;20631;-60
2021/12/23 15:13:28;;;;;;;23.20;14.30;;;;;;;;;;4995097;28;20190;-59
2021/12/23 15:15:59;;;;;;;22.73;13.63;;;;;;;;;;4995342;28;20533;-60
2021/12/23 15:18:35;;;;;;;26.40;14.13;;;;;;;;;;4995379;28;20170;-57
2021/12/23 15:21:05;;;;;;;24.50;14.63;;;;;;;;;;4996164;28;20158;-57
2021/12/23 15:23:39;;;;;;;24.65;15.02;;;;;;;;;;4995420;28;20191;-60
2021/12/23 15:26:19;;;;;;;25.70;14.95;;;;;;;;;;4995168;28;20167;-57
2021/12/23 15:29:02;;;;;;;25.75;14.10;;;;;;;;;;4994745;28;20244;-57
2021/12/23 15:31:28;;;;;;;25.08;14.95;;;;;;;;;;4994835;28;20576;-58
2021/12/23 15:33:54;;;;;;;24.50;14.27;;;;;;;;;;4994222;28;20177;-59
2021/12/23 15:36:20;;;;;;;24.55;14.32;;;;;;;;;;4994866;28;20186;-60
2021/12/23 15:38:46;;;;;;;25.15;14.65;;;;;;;;;;4994737;28;20630;-58
2021/12/23 15:41:11;;;;;;;24.88;15.88;;;;;;;;;;4994673;28;20649;-58
2021/12/23 15:43:37;;;;;;;28.75;16.05;;;;;;;;;;4994473;28;20198;-58
2021/12/23 15:46:03;;;;;;;26.17;15.38;;;;;;;;;;4995061;28;20457;-58
2021/12/23 15:48:29;;;;;;;26.50;15.13;;;;;;;;;;4994618;28;20789;-59
2021/12/23 15:50:59;;;;;;;29.30;15.98;;;;;;;;;;4994981;28;20201;-59
2021/12/23 15:53:25;;;;;;;28.20;15.65;;;;;;;;;;4994380;28;20625;-60
2021/12/23 15:55:51;;;;;;;27.60;15.88;;;;;;;;;;4994681;28;20197;-60
2021/12/23 15:58:18;;;;;;;26.08;15.35;;;;;;;;;;4994325;28;20498;-60
2021/12/23 16:00:44;;;;;;;25.90;15.73;;;;;;;;;;4994576;28;20258;-59
2021/12/23 16:03:10;;;;;;;28.13;16.35;;;;;;;;;;4994487;28;20209;-61
2021/12/23 16:08:06;;;;;;;29.48;16.67;;;;;;;;;;4994568;28;20610;-59
2021/12/23 16:10:32;;;;;;;27.38;15.68;;;;;;;;;;4994033;28;20289;-59
2021/12/23 16:12:58;;;;;;;27.05;15.95;;;;;;;;;;4994296;28;20666;-60
2021/12/23 16:15:24;;;;;;;26.02;15.80;;;;;;;;;;4993988;28;20257;-60
2021/12/23 16:17:51;;;;;;;27.70;16.38;;;;;;;;;;4994117;28;20290;-60
2021/12/23 16:20:19;;;;;;;26.77;16.30;;;;;;;;;;4994342;28;20219;-59
2021/12/23 16:22:45;;;;;;;30.85;16.35;;;;;;;;;;4994000;28;20254;-58
2021/12/23 16:25:12;;;;;;;24.98;15.27;;;;;;;;;;4994106;28;20167;-60
2021/12/23 16:27:38;;;;;;;26.08;15.43;;;;;;;;;;4994205;28;20188;-60